SPHO/AYP METAR and TAF weather

Enter ICAO airport designator
Station Type Date Time Source
SPHO METAR 2020/06/05 18:00 UTC NOAA

SPHO 051800Z VRB02KT 9999 FEW015 SCT020 BKN060 19/07 Q1030 RMK PP000


Station Type Date Time Source
SPHO Decoded METAR 2020/06/05 18:00 UTC NOAA

Ayacucho, Peru (SPHO) 13-08S 074-13W 2749M
Jun 05, 2020 - 02:00 PM EDT / 2020.06.05 1800 UTC
Wind: Variable at 2 MPH (2 KT):0
Visibility: greater than 7 mile(s):0
Sky conditions: mostly cloudy
Temperature: 66 F (19 C)
Dew Point: 44 F (7 C)
Relative Humidity: 45%
Pressure (altimeter): 30.42 in. Hg (1030 hPa)
ob: SPHO 051800Z VRB02KT 9999 FEW015 SCT020 BKN060 19/07 Q1030 RMK PP000
cycle: 18

Station Type Date Time Source
SPHO TAF 2020/06/03 12:18 UTC NOAA

TAF SPHO 031300Z 0312/0412 00000KT 9999 BKN0760 TX25/0319Z TN09/0411Z

Example: see airport list